sensor_id;sensor_type;location;lat;lon;timestamp;P1;durP1;ratioP1;P2;durP2;ratioP2
9997;SDS011;5038;53.064;8.624;2022-12-20T00:01:33;11.27;;;10.17;;
9997;SDS011;5038;53.064;8.624;2022-12-20T00:04:03;11.80;;;10.70;;
9997;SDS011;5038;53.064;8.624;2022-12-20T00:06:32;10.77;;;9.47;;
9997;SDS011;5038;53.064;8.624;2022-12-20T00:09:02;11.03;;;9.70;;
9997;SDS011;5038;53.064;8.624;2022-12-20T00:11:33;10.57;;;9.60;;
9997;SDS011;5038;53.064;8.624;2022-12-20T00:14:02;11.30;;;9.13;;
9997;SDS011;5038;53.064;8.624;2022-12-20T00:16:30;11.77;;;10.57;;
9997;SDS011;5038;53.064;8.624;2022-12-20T00:19:00;11.17;;;9.87;;
9997;SDS011;5038;53.064;8.624;2022-12-20T00:21:30;11.10;;;10.00;;
9997;SDS011;5038;53.064;8.624;2022-12-20T00:24:02;11.63;;;10.50;;
9997;SDS011;5038;53.064;8.624;2022-12-20T00:26:31;11.20;;;10.20;;
9997;SDS011;5038;53.064;8.624;2022-12-20T00:29:01;12.33;;;9.30;;
9997;SDS011;5038;53.064;8.624;2022-12-20T00:31:29;10.03;;;9.03;;
9997;SDS011;5038;53.064;8.624;2022-12-20T00:33:59;11.97;;;10.67;;
9997;SDS011;5038;53.064;8.624;2022-12-20T00:36:29;10.97;;;9.87;;
9997;SDS011;5038;53.064;8.624;2022-12-20T00:38:58;13.17;;;11.87;;
9997;SDS011;5038;53.064;8.624;2022-12-20T00:41:28;11.43;;;10.40;;
9997;SDS011;5038;53.064;8.624;2022-12-20T00:43:58;9.83;;;8.93;;
9997;SDS011;5038;53.064;8.624;2022-12-20T00:46:27;11.13;;;10.03;;
9997;SDS011;5038;53.064;8.624;2022-12-20T00:48:57;10.80;;;9.70;;
9997;SDS011;5038;53.064;8.624;2022-12-20T00:51:27;12.97;;;11.67;;
9997;SDS011;5038;53.064;8.624;2022-12-20T00:53:57;11.17;;;9.67;;
9997;SDS011;5038;53.064;8.624;2022-12-20T00:56:25;11.07;;;9.77;;
9997;SDS011;5038;53.064;8.624;2022-12-20T00:58:54;10.57;;;9.57;;
9997;SDS011;5038;53.064;8.624;2022-12-20T01:01:25;11.50;;;10.40;;
9997;SDS011;5038;53.064;8.624;2022-12-20T01:03:55;10.97;;;9.97;;
9997;SDS011;5038;53.064;8.624;2022-12-20T01:06:26;10.70;;;9.60;;
9997;SDS011;5038;53.064;8.624;2022-12-20T01:08:54;10.07;;;9.20;;
9997;SDS011;5038;53.064;8.624;2022-12-20T01:11:24;10.50;;;9.37;;
9997;SDS011;5038;53.064;8.624;2022-12-20T01:13:54;10.90;;;9.80;;
9997;SDS011;5038;53.064;8.624;2022-12-20T01:16:25;10.43;;;9.40;;
9997;SDS011;5038;53.064;8.624;2022-12-20T01:18:55;9.47;;;8.67;;
9997;SDS011;5038;53.064;8.624;2022-12-20T01:21:24;11.40;;;10.30;;
9997;SDS011;5038;53.064;8.624;2022-12-20T01:23:55;11.97;;;9.37;;
9997;SDS011;5038;53.064;8.624;2022-12-20T01:26:24;9.57;;;8.43;;
9997;SDS011;5038;53.064;8.624;2022-12-20T01:28:55;10.77;;;9.70;;
9997;SDS011;5038;53.064;8.624;2022-12-20T01:31:24;11.33;;;9.57;;
9997;SDS011;5038;53.064;8.624;2022-12-20T01:33:54;11.50;;;10.40;;
9997;SDS011;5038;53.064;8.624;2022-12-20T01:36:24;10.63;;;9.63;;
9997;SDS011;5038;53.064;8.624;2022-12-20T01:38:55;11.30;;;10.17;;
9997;SDS011;5038;53.064;8.624;2022-12-20T01:41:24;11.00;;;10.00;;
9997;SDS011;5038;53.064;8.624;2022-12-20T01:43:54;10.43;;;9.47;;
9997;SDS011;5038;53.064;8.624;2022-12-20T01:46:24;10.83;;;9.63;;
9997;SDS011;5038;53.064;8.624;2022-12-20T01:48:54;10.83;;;9.63;;
9997;SDS011;5038;53.064;8.624;2022-12-20T01:51:28;9.50;;;8.50;;
9997;SDS011;5038;53.064;8.624;2022-12-20T01:54:00;10.60;;;9.60;;
9997;SDS011;5038;53.064;8.624;2022-12-20T01:56:32;12.23;;;9.77;;
9997;SDS011;5038;53.064;8.624;2022-12-20T01:59:01;10.47;;;9.47;;
9997;SDS011;5038;53.064;8.624;2022-12-20T02:01:30;11.17;;;10.17;;
9997;SDS011;5038;53.064;8.624;2022-12-20T02:03:58;9.83;;;8.93;;
9997;SDS011;5038;53.064;8.624;2022-12-20T02:06:28;9.93;;;9.00;;
9997;SDS011;5038;53.064;8.624;2022-12-20T02:08:59;11.27;;;10.17;;
9997;SDS011;5038;53.064;8.624;2022-12-20T02:11:33;9.53;;;8.63;;
9997;SDS011;5038;53.064;8.624;2022-12-20T02:14:14;10.60;;;9.60;;
9997;SDS011;5038;53.064;8.624;2022-12-20T02:16:53;11.07;;;9.57;;
9997;SDS011;5038;53.064;8.624;2022-12-20T02:22:48;10.80;;;9.70;;
9997;SDS011;5038;53.064;8.624;2022-12-20T02:25:37;10.33;;;9.43;;
9997;SDS011;5038;53.064;8.624;2022-12-20T02:28:15;9.93;;;8.93;;
9997;SDS011;5038;53.064;8.624;2022-12-20T02:31:00;10.50;;;9.57;;
9997;SDS011;5038;53.064;8.624;2022-12-20T02:33:34;11.03;;;9.93;;
9997;SDS011;5038;53.064;8.624;2022-12-20T02:36:02;11.03;;;10.00;;
9997;SDS011;5038;53.064;8.624;2022-12-20T02:38:32;9.90;;;8.80;;
9997;SDS011;5038;53.064;8.624;2022-12-20T02:41:03;9.77;;;8.90;;
9997;SDS011;5038;53.064;8.624;2022-12-20T02:43:39;9.60;;;8.70;;
9997;SDS011;5038;53.064;8.624;2022-12-20T02:46:28;10.53;;;9.40;;
9997;SDS011;5038;53.064;8.624;2022-12-20T02:48:59;9.33;;;8.43;;
9997;SDS011;5038;53.064;8.624;2022-12-20T02:51:31;9.93;;;8.83;;
9997;SDS011;5038;53.064;8.624;2022-12-20T02:54:00;10.20;;;9.20;;
9997;SDS011;5038;53.064;8.624;2022-12-20T02:56:30;10.33;;;9.33;;
9997;SDS011;5038;53.064;8.624;2022-12-20T02:59:02;11.80;;;10.17;;
9997;SDS011;5038;53.064;8.624;2022-12-20T03:01:38;9.97;;;8.97;;
9997;SDS011;5038;53.064;8.624;2022-12-20T03:04:11;9.97;;;9.00;;
9997;SDS011;5038;53.064;8.624;2022-12-20T03:06:45;9.97;;;8.73;;
9997;SDS011;5038;53.064;8.624;2022-12-20T03:09:22;11.13;;;8.83;;
9997;SDS011;5038;53.064;8.624;2022-12-20T03:11:51;9.03;;;7.53;;
9997;SDS011;5038;53.064;8.624;2022-12-20T03:14:21;10.30;;;9.10;;
9997;SDS011;5038;53.064;8.624;2022-12-20T03:16:52;10.27;;;9.37;;
9997;SDS011;5038;53.064;8.624;2022-12-20T03:19:21;9.17;;;8.37;;
9997;SDS011;5038;53.064;8.624;2022-12-20T03:21:49;9.80;;;8.57;;
9997;SDS011;5038;53.064;8.624;2022-12-20T03:24:17;9.00;;;8.20;;
9997;SDS011;5038;53.064;8.624;2022-12-20T03:26:47;9.70;;;8.70;;
9997;SDS011;5038;53.064;8.624;2022-12-20T03:29:16;9.53;;;8.63;;
9997;SDS011;5038;53.064;8.624;2022-12-20T03:31:45;8.30;;;7.50;;
9997;SDS011;5038;53.064;8.624;2022-12-20T03:34:14;9.47;;;8.40;;
9997;SDS011;5038;53.064;8.624;2022-12-20T03:36:42;9.63;;;8.73;;
9997;SDS011;5038;53.064;8.624;2022-12-20T03:39:10;9.13;;;8.23;;
9997;SDS011;5038;53.064;8.624;2022-12-20T03:41:39;9.73;;;8.83;;
9997;SDS011;5038;53.064;8.624;2022-12-20T03:44:10;9.40;;;8.50;;
9997;SDS011;5038;53.064;8.624;2022-12-20T03:46:38;9.43;;;8.53;;
9997;SDS011;5038;53.064;8.624;2022-12-20T03:49:06;9.27;;;8.37;;
9997;SDS011;5038;53.064;8.624;2022-12-20T03:51:43;9.00;;;8.10;;
9997;SDS011;5038;53.064;8.624;2022-12-20T03:54:11;9.07;;;8.17;;
9997;SDS011;5038;53.064;8.624;2022-12-20T03:57:12;8.87;;;7.97;;
9997;SDS011;5038;53.064;8.624;2022-12-20T03:59:41;8.40;;;7.60;;
9997;SDS011;5038;53.064;8.624;2022-12-20T04:02:13;9.60;;;8.40;;
9997;SDS011;5038;53.064;8.624;2022-12-20T04:04:41;9.40;;;7.80;;
9997;SDS011;5038;53.064;8.624;2022-12-20T04:07:11;9.20;;;8.30;;
9997;SDS011;5038;53.064;8.624;2022-12-20T04:09:43;11.30;;;9.23;;
9997;SDS011;5038;53.064;8.624;2022-12-20T04:12:14;9.80;;;8.80;;
9997;SDS011;5038;53.064;8.624;2022-12-20T04:14:43;9.00;;;8.17;;
9997;SDS011;5038;53.064;8.624;2022-12-20T04:17:12;9.00;;;8.10;;
9997;SDS011;5038;53.064;8.624;2022-12-20T04:19:40;9.70;;;8.70;;
9997;SDS011;5038;53.064;8.624;2022-12-20T04:22:08;8.93;;;8.03;;
9997;SDS011;5038;53.064;8.624;2022-12-20T04:24:57;10.40;;;9.30;;
9997;SDS011;5038;53.064;8.624;2022-12-20T04:27:30;10.07;;;9.03;;
9997;SDS011;5038;53.064;8.624;2022-12-20T04:30:01;8.77;;;7.97;;
9997;SDS011;5038;53.064;8.624;2022-12-20T04:32:29;9.83;;;8.10;;
9997;SDS011;5038;53.064;8.624;2022-12-20T04:34:59;9.37;;;8.30;;
9997;SDS011;5038;53.064;8.624;2022-12-20T04:37:28;8.70;;;7.90;;
9997;SDS011;5038;53.064;8.624;2022-12-20T04:39:58;8.33;;;7.53;;
9997;SDS011;5038;53.064;8.624;2022-12-20T04:42:39;9.27;;;8.27;;
9997;SDS011;5038;53.064;8.624;2022-12-20T04:45:10;11.40;;;8.60;;
9997;SDS011;5038;53.064;8.624;2022-12-20T04:47:38;10.57;;;9.03;;
9997;SDS011;5038;53.064;8.624;2022-12-20T04:50:08;8.80;;;7.90;;
9997;SDS011;5038;53.064;8.624;2022-12-20T04:52:39;9.90;;;7.93;;
9997;SDS011;5038;53.064;8.624;2022-12-20T04:55:27;10.23;;;8.90;;
9997;SDS011;5038;53.064;8.624;2022-12-20T04:57:55;9.13;;;8.20;;
9997;SDS011;5038;53.064;8.624;2022-12-20T05:00:33;9.00;;;8.10;;
9997;SDS011;5038;53.064;8.624;2022-12-20T05:03:13;8.60;;;7.70;;
9997;SDS011;5038;53.064;8.624;2022-12-20T05:05:41;8.73;;;7.93;;
9997;SDS011;5038;53.064;8.624;2022-12-20T05:08:10;8.80;;;7.90;;
9997;SDS011;5038;53.064;8.624;2022-12-20T05:10:39;9.10;;;7.67;;
9997;SDS011;5038;53.064;8.624;2022-12-20T05:13:08;8.53;;;7.73;;
9997;SDS011;5038;53.064;8.624;2022-12-20T05:15:40;9.13;;;7.83;;
9997;SDS011;5038;53.064;8.624;2022-12-20T05:18:10;9.00;;;7.77;;
9997;SDS011;5038;53.064;8.624;2022-12-20T05:20:53;8.13;;;7.33;;
9997;SDS011;5038;53.064;8.624;2022-12-20T05:23:37;11.67;;;10.50;;
9997;SDS011;5038;53.064;8.624;2022-12-20T05:26:26;9.43;;;7.70;;
9997;SDS011;5038;53.064;8.624;2022-12-20T05:28:59;9.70;;;8.80;;
9997;SDS011;5038;53.064;8.624;2022-12-20T05:31:27;9.97;;;8.30;;
9997;SDS011;5038;53.064;8.624;2022-12-20T05:33:57;9.43;;;8.50;;
9997;SDS011;5038;53.064;8.624;2022-12-20T05:36:29;9.80;;;8.13;;
9997;SDS011;5038;53.064;8.624;2022-12-20T05:38:59;9.00;;;8.07;;
9997;SDS011;5038;53.064;8.624;2022-12-20T05:41:33;9.80;;;8.50;;
9997;SDS011;5038;53.064;8.624;2022-12-20T05:44:01;11.80;;;8.77;;
9997;SDS011;5038;53.064;8.624;2022-12-20T05:46:33;9.97;;;8.37;;
9997;SDS011;5038;53.064;8.624;2022-12-20T05:49:06;9.53;;;8.17;;
9997;SDS011;5038;53.064;8.624;2022-12-20T05:51:34;9.10;;;8.20;;
9997;SDS011;5038;53.064;8.624;2022-12-20T05:54:16;9.60;;;8.70;;
9997;SDS011;5038;53.064;8.624;2022-12-20T05:57:12;11.10;;;9.17;;
9997;SDS011;5038;53.064;8.624;2022-12-20T05:59:41;10.57;;;9.57;;
9997;SDS011;5038;53.064;8.624;2022-12-20T06:02:19;10.73;;;9.73;;
9997;SDS011;5038;53.064;8.624;2022-12-20T06:04:55;10.67;;;9.70;;
9997;SDS011;5038;53.064;8.624;2022-12-20T06:07:24;9.57;;;8.57;;
9997;SDS011;5038;53.064;8.624;2022-12-20T06:09:57;11.47;;;9.90;;
9997;SDS011;5038;53.064;8.624;2022-12-20T06:12:39;12.27;;;11.07;;
9997;SDS011;5038;53.064;8.624;2022-12-20T06:15:08;13.13;;;11.93;;
9997;SDS011;5038;53.064;8.624;2022-12-20T06:17:37;11.70;;;10.60;;
9997;SDS011;5038;53.064;8.624;2022-12-20T06:20:06;11.50;;;10.40;;
9997;SDS011;5038;53.064;8.624;2022-12-20T06:22:35;11.43;;;10.23;;
9997;SDS011;5038;53.064;8.624;2022-12-20T06:25:04;11.00;;;10.00;;
9997;SDS011;5038;53.064;8.624;2022-12-20T06:27:37;11.23;;;10.23;;
9997;SDS011;5038;53.064;8.624;2022-12-20T06:30:12;10.90;;;9.90;;
9997;SDS011;5038;53.064;8.624;2022-12-20T06:33:13;10.97;;;9.70;;
9997;SDS011;5038;53.064;8.624;2022-12-20T06:35:41;11.60;;;10.50;;
9997;SDS011;5038;53.064;8.624;2022-12-20T06:38:09;11.80;;;10.57;;
9997;SDS011;5038;53.064;8.624;2022-12-20T06:40:37;12.57;;;11.07;;
9997;SDS011;5038;53.064;8.624;2022-12-20T06:43:05;12.17;;;10.07;;
9997;SDS011;5038;53.064;8.624;2022-12-20T06:45:35;10.30;;;9.30;;
9997;SDS011;5038;53.064;8.624;2022-12-20T06:48:09;10.30;;;9.33;;
9997;SDS011;5038;53.064;8.624;2022-12-20T06:50:38;12.53;;;9.40;;
9997;SDS011;5038;53.064;8.624;2022-12-20T06:53:07;10.53;;;9.50;;
9997;SDS011;5038;53.064;8.624;2022-12-20T06:55:36;11.87;;;10.67;;
9997;SDS011;5038;53.064;8.624;2022-12-20T06:58:05;10.70;;;9.63;;
9997;SDS011;5038;53.064;8.624;2022-12-20T07:00:37;11.20;;;10.10;;
9997;SDS011;5038;53.064;8.624;2022-12-20T07:03:06;10.13;;;8.70;;
9997;SDS011;5038;53.064;8.624;2022-12-20T07:05:34;10.20;;;9.20;;
9997;SDS011;5038;53.064;8.624;2022-12-20T07:08:03;10.00;;;9.10;;
9997;SDS011;5038;53.064;8.624;2022-12-20T07:10:32;10.63;;;9.70;;
9997;SDS011;5038;53.064;8.624;2022-12-20T07:13:01;9.83;;;8.93;;
9997;SDS011;5038;53.064;8.624;2022-12-20T07:15:30;10.73;;;9.20;;
9997;SDS011;5038;53.064;8.624;2022-12-20T07:17:59;9.43;;;8.53;;
9997;SDS011;5038;53.064;8.624;2022-12-20T07:20:28;9.60;;;8.60;;
9997;SDS011;5038;53.064;8.624;2022-12-20T07:22:57;8.90;;;8.10;;
9997;SDS011;5038;53.064;8.624;2022-12-20T07:25:26;9.80;;;8.90;;
9997;SDS011;5038;53.064;8.624;2022-12-20T07:27:54;9.23;;;8.33;;
9997;SDS011;5038;53.064;8.624;2022-12-20T07:30:22;11.43;;;8.50;;
9997;SDS011;5038;53.064;8.624;2022-12-20T07:32:51;9.53;;;8.57;;
9997;SDS011;5038;53.064;8.624;2022-12-20T07:35:21;8.40;;;7.63;;
9997;SDS011;5038;53.064;8.624;2022-12-20T07:37:51;8.43;;;7.60;;
9997;SDS011;5038;53.064;8.624;2022-12-20T07:40:19;10.23;;;9.13;;
9997;SDS011;5038;53.064;8.624;2022-12-20T07:42:47;9.40;;;8.50;;
9997;SDS011;5038;53.064;8.624;2022-12-20T07:45:17;9.17;;;8.27;;
9997;SDS011;5038;53.064;8.624;2022-12-20T07:47:45;9.73;;;8.83;;
9997;SDS011;5038;53.064;8.624;2022-12-20T07:50:13;10.80;;;8.50;;
9997;SDS011;5038;53.064;8.624;2022-12-20T07:52:43;9.27;;;8.30;;
9997;SDS011;5038;53.064;8.624;2022-12-20T07:55:13;9.57;;;8.57;;
9997;SDS011;5038;53.064;8.624;2022-12-20T07:57:42;9.10;;;8.20;;
9997;SDS011;5038;53.064;8.624;2022-12-20T08:00:15;9.77;;;7.73;;
9997;SDS011;5038;53.064;8.624;2022-12-20T08:02:46;9.07;;;7.77;;
9997;SDS011;5038;53.064;8.624;2022-12-20T08:05:17;8.90;;;7.80;;
9997;SDS011;5038;53.064;8.624;2022-12-20T08:07:46;8.50;;;7.60;;
9997;SDS011;5038;53.064;8.624;2022-12-20T08:10:24;8.83;;;7.87;;
9997;SDS011;5038;53.064;8.624;2022-12-20T08:12:53;8.67;;;7.77;;
9997;SDS011;5038;53.064;8.624;2022-12-20T08:15:22;8.67;;;7.80;;
9997;SDS011;5038;53.064;8.624;2022-12-20T08:17:51;8.37;;;7.43;;
9997;SDS011;5038;53.064;8.624;2022-12-20T08:20:19;9.87;;;8.70;;
9997;SDS011;5038;53.064;8.624;2022-12-20T08:22:49;8.67;;;7.87;;
9997;SDS011;5038;53.064;8.624;2022-12-20T08:25:17;9.13;;;7.93;;
9997;SDS011;5038;53.064;8.624;2022-12-20T08:27:46;8.13;;;6.90;;
9997;SDS011;5038;53.064;8.624;2022-12-20T08:30:15;12.80;;;8.43;;
9997;SDS011;5038;53.064;8.624;2022-12-20T08:32:43;10.00;;;8.50;;
9997;SDS011;5038;53.064;8.624;2022-12-20T08:35:12;9.37;;;7.80;;
9997;SDS011;5038;53.064;8.624;2022-12-20T08:37:40;8.67;;;7.70;;
9997;SDS011;5038;53.064;8.624;2022-12-20T08:40:10;8.83;;;7.53;;
9997;SDS011;5038;53.064;8.624;2022-12-20T08:42:39;9.80;;;8.40;;
9997;SDS011;5038;53.064;8.624;2022-12-20T08:45:07;8.17;;;7.33;;
9997;SDS011;5038;53.064;8.624;2022-12-20T08:47:36;8.57;;;7.67;;
9997;SDS011;5038;53.064;8.624;2022-12-20T08:50:05;13.40;;;7.90;;
9997;SDS011;5038;53.064;8.624;2022-12-20T08:52:33;11.00;;;7.60;;
9997;SDS011;5038;53.064;8.624;2022-12-20T08:55:02;8.03;;;7.00;;
9997;SDS011;5038;53.064;8.624;2022-12-20T08:57:32;9.50;;;7.27;;
9997;SDS011;5038;53.064;8.624;2022-12-20T09:00:00;9.17;;;8.17;;
9997;SDS011;5038;53.064;8.624;2022-12-20T09:02:29;8.83;;;7.37;;
9997;SDS011;5038;53.064;8.624;2022-12-20T09:05:01;8.97;;;8.07;;
9997;SDS011;5038;53.064;8.624;2022-12-20T09:07:30;10.30;;;7.67;;
9997;SDS011;5038;53.064;8.624;2022-12-20T09:09:59;9.73;;;7.73;;
9997;SDS011;5038;53.064;8.624;2022-12-20T09:12:27;8.20;;;7.40;;
9997;SDS011;5038;53.064;8.624;2022-12-20T09:14:57;10.80;;;7.33;;
9997;SDS011;5038;53.064;8.624;2022-12-20T09:17:25;9.10;;;7.43;;
9997;SDS011;5038;53.064;8.624;2022-12-20T09:19:53;7.77;;;7.03;;
9997;SDS011;5038;53.064;8.624;2022-12-20T09:22:21;9.03;;;7.60;;
9997;SDS011;5038;53.064;8.624;2022-12-20T09:24:50;9.27;;;6.87;;
9997;SDS011;5038;53.064;8.624;2022-12-20T09:27:18;8.50;;;6.87;;
9997;SDS011;5038;53.064;8.624;2022-12-20T09:29:46;9.20;;;6.70;;
9997;SDS011;5038;53.064;8.624;2022-12-20T09:32:16;7.67;;;6.27;;
9997;SDS011;5038;53.064;8.624;2022-12-20T09:34:44;9.03;;;6.83;;
9997;SDS011;5038;53.064;8.624;2022-12-20T09:37:13;8.30;;;7.40;;
9997;SDS011;5038;53.064;8.624;2022-12-20T09:39:41;8.10;;;7.23;;
9997;SDS011;5038;53.064;8.624;2022-12-20T09:42:12;10.17;;;6.70;;
9997;SDS011;5038;53.064;8.624;2022-12-20T09:44:42;8.60;;;7.30;;
9997;SDS011;5038;53.064;8.624;2022-12-20T09:47:11;8.43;;;7.27;;
9997;SDS011;5038;53.064;8.624;2022-12-20T09:49:44;8.67;;;6.60;;
9997;SDS011;5038;53.064;8.624;2022-12-20T09:52:24;7.97;;;6.90;;
9997;SDS011;5038;53.064;8.624;2022-12-20T09:55:03;10.27;;;6.93;;
9997;SDS011;5038;53.064;8.624;2022-12-20T09:57:46;8.07;;;6.30;;
9997;SDS011;5038;53.064;8.624;2022-12-20T10:00:26;9.13;;;6.60;;
9997;SDS011;5038;53.064;8.624;2022-12-20T10:02:57;7.07;;;6.37;;
9997;SDS011;5038;53.064;8.624;2022-12-20T10:05:37;7.63;;;5.93;;
9997;SDS011;5038;53.064;8.624;2022-12-20T10:08:14;9.43;;;7.00;;
9997;SDS011;5038;53.064;8.624;2022-12-20T10:10:51;8.00;;;7.07;;
9997;SDS011;5038;53.064;8.624;2022-12-20T10:13:24;8.37;;;7.17;;
9997;SDS011;5038;53.064;8.624;2022-12-20T10:16:15;7.90;;;6.40;;
9997;SDS011;5038;53.064;8.624;2022-12-20T10:18:58;9.30;;;7.23;;
9997;SDS011;5038;53.064;8.624;2022-12-20T10:21:43;10.50;;;6.57;;
9997;SDS011;5038;53.064;8.624;2022-12-20T10:24:17;6.60;;;5.97;;
9997;SDS011;5038;53.064;8.624;2022-12-20T10:26:48;8.20;;;5.80;;
9997;SDS011;5038;53.064;8.624;2022-12-20T10:29:17;7.40;;;6.50;;
9997;SDS011;5038;53.064;8.624;2022-12-20T10:31:48;6.97;;;6.27;;
9997;SDS011;5038;53.064;8.624;2022-12-20T10:34:20;7.53;;;6.73;;
9997;SDS011;5038;53.064;8.624;2022-12-20T10:36:50;7.37;;;6.60;;
9997;SDS011;5038;53.064;8.624;2022-12-20T10:39:41;6.90;;;6.20;;
9997;SDS011;5038;53.064;8.624;2022-12-20T10:42:24;6.70;;;5.80;;
9997;SDS011;5038;53.064;8.624;2022-12-20T10:44:57;6.17;;;5.33;;
9997;SDS011;5038;53.064;8.624;2022-12-20T10:47:33;7.23;;;5.97;;
9997;SDS011;5038;53.064;8.624;2022-12-20T10:50:16;7.43;;;6.73;;
9997;SDS011;5038;53.064;8.624;2022-12-20T10:52:59;7.67;;;6.03;;
9997;SDS011;5038;53.064;8.624;2022-12-20T10:55:38;6.50;;;5.60;;
9997;SDS011;5038;53.064;8.624;2022-12-20T10:58:11;8.20;;;6.10;;
9997;SDS011;5038;53.064;8.624;2022-12-20T11:00:41;6.43;;;5.53;;
9997;SDS011;5038;53.064;8.624;2022-12-20T11:03:12;5.73;;;4.87;;
9997;SDS011;5038;53.064;8.624;2022-12-20T11:05:52;7.40;;;5.50;;
9997;SDS011;5038;53.064;8.624;2022-12-20T11:08:23;6.43;;;5.40;;
9997;SDS011;5038;53.064;8.624;2022-12-20T11:11:11;6.87;;;5.37;;
9997;SDS011;5038;53.064;8.624;2022-12-20T11:13:43;6.43;;;5.10;;
9997;SDS011;5038;53.064;8.624;2022-12-20T11:16:28;5.63;;;5.13;;
9997;SDS011;5038;53.064;8.624;2022-12-20T11:19:05;6.67;;;5.60;;
9997;SDS011;5038;53.064;8.624;2022-12-20T11:21:50;6.70;;;5.40;;
9997;SDS011;5038;53.064;8.624;2022-12-20T11:24:28;6.80;;;5.23;;
9997;SDS011;5038;53.064;8.624;2022-12-20T11:27:09;6.20;;;5.20;;
9997;SDS011;5038;53.064;8.624;2022-12-20T11:29:50;6.53;;;5.33;;
9997;SDS011;5038;53.064;8.624;2022-12-20T11:32:39;6.40;;;5.50;;
9997;SDS011;5038;53.064;8.624;2022-12-20T11:35:21;6.40;;;5.03;;
9997;SDS011;5038;53.064;8.624;2022-12-20T11:37:57;7.70;;;6.10;;
9997;SDS011;5038;53.064;8.624;2022-12-20T11:40:36;6.60;;;5.97;;
9997;SDS011;5038;53.064;8.624;2022-12-20T11:43:18;6.63;;;6.03;;
9997;SDS011;5038;53.064;8.624;2022-12-20T11:46:03;6.40;;;5.80;;
9997;SDS011;5038;53.064;8.624;2022-12-20T11:48:46;7.37;;;6.33;;
9997;SDS011;5038;53.064;8.624;2022-12-20T11:51:29;6.93;;;5.60;;
9997;SDS011;5038;53.064;8.624;2022-12-20T11:54:06;5.93;;;5.33;;
9997;SDS011;5038;53.064;8.624;2022-12-20T11:56:38;6.97;;;5.40;;
9997;SDS011;5038;53.064;8.624;2022-12-20T11:59:11;8.80;;;5.47;;
9997;SDS011;5038;53.064;8.624;2022-12-20T12:01:49;7.80;;;6.17;;
9997;SDS011;5038;53.064;8.624;2022-12-20T12:04:24;7.43;;;6.50;;
9997;SDS011;5038;53.064;8.624;2022-12-20T12:06:57;7.43;;;6.20;;
9997;SDS011;5038;53.064;8.624;2022-12-20T12:09:31;7.30;;;6.40;;
9997;SDS011;5038;53.064;8.624;2022-12-20T12:12:03;7.10;;;6.30;;
9997;SDS011;5038;53.064;8.624;2022-12-20T12:14:45;7.47;;;6.40;;
9997;SDS011;5038;53.064;8.624;2022-12-20T12:17:23;9.83;;;6.73;;
9997;SDS011;5038;53.064;8.624;2022-12-20T12:19:56;10.23;;;6.50;;
9997;SDS011;5038;53.064;8.624;2022-12-20T12:22:33;7.50;;;6.80;;
9997;SDS011;5038;53.064;8.624;2022-12-20T12:25:09;8.80;;;6.90;;
9997;SDS011;5038;53.064;8.624;2022-12-20T12:27:42;10.73;;;6.40;;
9997;SDS011;5038;53.064;8.624;2022-12-20T12:30:11;9.13;;;7.70;;
9997;SDS011;5038;53.064;8.624;2022-12-20T12:32:42;8.30;;;7.20;;
9997;SDS011;5038;53.064;8.624;2022-12-20T12:35:22;7.13;;;6.37;;
9997;SDS011;5038;53.064;8.624;2022-12-20T12:38:22;10.37;;;8.07;;
9997;SDS011;5038;53.064;8.624;2022-12-20T12:41:37;7.57;;;6.73;;
9997;SDS011;5038;53.064;8.624;2022-12-20T12:44:30;10.57;;;6.73;;
9997;SDS011;5038;53.064;8.624;2022-12-20T12:47:13;9.47;;;8.37;;
9997;SDS011;5038;53.064;8.624;2022-12-20T12:49:49;8.50;;;6.97;;
9997;SDS011;5038;53.064;8.624;2022-12-20T12:52:27;8.20;;;7.40;;
9997;SDS011;5038;53.064;8.624;2022-12-20T13:01:02;7.73;;;6.97;;
9997;SDS011;5038;53.064;8.624;2022-12-20T13:03:36;8.70;;;6.90;;
9997;SDS011;5038;53.064;8.624;2022-12-20T13:09:19;8.83;;;7.93;;
9997;SDS011;5038;53.064;8.624;2022-12-20T13:18:23;7.77;;;6.97;;
9997;SDS011;5038;53.064;8.624;2022-12-20T13:24:27;7.90;;;7.10;;
9997;SDS011;5038;53.064;8.624;2022-12-20T13:27:03;10.33;;;8.20;;
9997;SDS011;5038;53.064;8.624;2022-12-20T13:32:56;12.80;;;7.63;;
9997;SDS011;5038;53.064;8.624;2022-12-20T13:35:31;9.83;;;7.87;;
9997;SDS011;5038;53.064;8.624;2022-12-20T13:41:11;8.90;;;7.93;;
9997;SDS011;5038;53.064;8.624;2022-12-20T13:43:48;9.40;;;7.50;;
9997;SDS011;5038;53.064;8.624;2022-12-20T13:46:20;9.97;;;8.97;;
9997;SDS011;5038;53.064;8.624;2022-12-20T13:48:53;10.90;;;8.43;;
9997;SDS011;5038;53.064;8.624;2022-12-20T13:51:29;9.37;;;7.40;;
9997;SDS011;5038;53.064;8.624;2022-12-20T13:53:58;8.70;;;7.90;;
9997;SDS011;5038;53.064;8.624;2022-12-20T13:56:37;9.03;;;8.13;;
9997;SDS011;5038;53.064;8.624;2022-12-20T13:59:12;10.03;;;8.00;;
9997;SDS011;5038;53.064;8.624;2022-12-20T14:01:46;9.10;;;8.20;;
9997;SDS011;5038;53.064;8.624;2022-12-20T14:04:17;10.80;;;8.10;;
9997;SDS011;5038;53.064;8.624;2022-12-20T14:06:49;10.40;;;7.80;;
9997;SDS011;5038;53.064;8.624;2022-12-20T14:09:26;8.73;;;7.83;;
9997;SDS011;5038;53.064;8.624;2022-12-20T14:12:01;9.63;;;8.67;;
9997;SDS011;5038;53.064;8.624;2022-12-20T14:14:35;10.70;;;9.00;;
9997;SDS011;5038;53.064;8.624;2022-12-20T14:17:14;10.20;;;8.67;;
9997;SDS011;5038;53.064;8.624;2022-12-20T14:19:44;10.03;;;8.07;;
9997;SDS011;5038;53.064;8.624;2022-12-20T14:22:13;9.63;;;8.37;;
9997;SDS011;5038;53.064;8.624;2022-12-20T14:24:41;9.77;;;8.73;;
9997;SDS011;5038;53.064;8.624;2022-12-20T14:27:11;9.27;;;8.20;;
9997;SDS011;5038;53.064;8.624;2022-12-20T14:29:40;9.63;;;7.77;;
9997;SDS011;5038;53.064;8.624;2022-12-20T14:32:16;9.03;;;8.10;;
9997;SDS011;5038;53.064;8.624;2022-12-20T14:34:47;11.43;;;10.33;;
9997;SDS011;5038;53.064;8.624;2022-12-20T14:37:29;13.20;;;11.80;;
9997;SDS011;5038;53.064;8.624;2022-12-20T14:40:00;9.40;;;8.50;;
9997;SDS011;5038;53.064;8.624;2022-12-20T14:42:41;9.70;;;8.80;;
9997;SDS011;5038;53.064;8.624;2022-12-20T14:45:15;9.57;;;8.67;;
9997;SDS011;5038;53.064;8.624;2022-12-20T14:47:49;9.77;;;8.90;;
9997;SDS011;5038;53.064;8.624;2022-12-20T14:50:23;11.67;;;8.87;;
9997;SDS011;5038;53.064;8.624;2022-12-20T14:52:57;9.93;;;8.20;;
9997;SDS011;5038;53.064;8.624;2022-12-20T14:55:30;11.33;;;9.63;;
9997;SDS011;5038;53.064;8.624;2022-12-20T14:58:05;10.80;;;9.50;;
9997;SDS011;5038;53.064;8.624;2022-12-20T15:00:54;10.40;;;8.43;;
9997;SDS011;5038;53.064;8.624;2022-12-20T15:03:24;9.30;;;8.40;;
9997;SDS011;5038;53.064;8.624;2022-12-20T15:05:55;9.03;;;7.63;;
9997;SDS011;5038;53.064;8.624;2022-12-20T15:08:24;9.63;;;8.60;;
9997;SDS011;5038;53.064;8.624;2022-12-20T15:11:00;10.03;;;8.93;;
9997;SDS011;5038;53.064;8.624;2022-12-20T15:13:38;10.57;;;9.50;;
9997;SDS011;5038;53.064;8.624;2022-12-20T15:16:12;18.20;;;9.87;;
9997;SDS011;5038;53.064;8.624;2022-12-20T15:18:42;9.43;;;8.53;;
9997;SDS011;5038;53.064;8.624;2022-12-20T15:21:12;10.13;;;8.90;;
9997;SDS011;5038;53.064;8.624;2022-12-20T15:23:42;9.23;;;8.33;;
9997;SDS011;5038;53.064;8.624;2022-12-20T15:26:14;12.10;;;9.50;;
9997;SDS011;5038;53.064;8.624;2022-12-20T15:28:44;11.60;;;10.17;;
9997;SDS011;5038;53.064;8.624;2022-12-20T15:31:13;11.87;;;10.80;;
9997;SDS011;5038;53.064;8.624;2022-12-20T15:33:44;12.20;;;11.00;;
9997;SDS011;5038;53.064;8.624;2022-12-20T15:36:15;10.77;;;9.80;;
9997;SDS011;5038;53.064;8.624;2022-12-20T15:38:45;11.40;;;10.40;;
9997;SDS011;5038;53.064;8.624;2022-12-20T15:41:33;12.33;;;10.83;;
9997;SDS011;5038;53.064;8.624;2022-12-20T15:44:02;12.33;;;11.17;;
9997;SDS011;5038;53.064;8.624;2022-12-20T15:46:33;12.30;;;11.20;;
9997;SDS011;5038;53.064;8.624;2022-12-20T15:49:01;13.03;;;11.23;;
9997;SDS011;5038;53.064;8.624;2022-12-20T15:51:31;12.33;;;11.03;;
9997;SDS011;5038;53.064;8.624;2022-12-20T15:54:02;13.17;;;11.90;;
9997;SDS011;5038;53.064;8.624;2022-12-20T15:56:33;13.97;;;12.70;;
9997;SDS011;5038;53.064;8.624;2022-12-20T15:59:01;13.50;;;12.30;;
9997;SDS011;5038;53.064;8.624;2022-12-20T16:01:50;14.10;;;12.70;;
9997;SDS011;5038;53.064;8.624;2022-12-20T16:04:19;14.30;;;12.80;;
9997;SDS011;5038;53.064;8.624;2022-12-20T16:06:50;13.73;;;12.50;;
9997;SDS011;5038;53.064;8.624;2022-12-20T16:09:19;13.83;;;12.63;;
9997;SDS011;5038;53.064;8.624;2022-12-20T16:11:50;13.50;;;12.20;;